Columbia (COU/KCOU)

Map

Destinations

Information

Location
Columbia, Missouri
Local Time
12:02 / 12:02 pm
GMT Time
18:02 / 6:02 pm
Gates
Unassigned
No FAA reported delays
METAR KCOU 191754Z 30007KT 10SM CLR 04/M07 A3027 RMK AO2 SLP254 T00441067 10050 21017 50002 $
TAF KCOU 191725Z 1918/2018 30012KT P6SM SKC FM200000 26005KT P6SM SKC FM201000 20010KT P6SM FEW250 FM201600 21013G23KT P6SM SKC